sensor_id;sensor_type;location;lat;lon;timestamp;P1;durP1;ratioP1;P2;durP2;ratioP2
58017;SDS011;43810;50.860;19.226;2024-03-07T00:00:46;31.95;;;12.57;;
58017;SDS011;43810;50.860;19.226;2024-03-07T00:03:30;27.00;;;11.88;;
58017;SDS011;43810;50.860;19.226;2024-03-07T00:05:56;26.90;;;12.43;;
58017;SDS011;43810;50.860;19.226;2024-03-07T00:08:22;36.10;;;14.95;;
58017;SDS011;43810;50.860;19.226;2024-03-07T00:10:48;29.08;;;14.25;;
58017;SDS011;43810;50.860;19.226;2024-03-07T00:13:14;26.98;;;12.55;;
58017;SDS011;43810;50.860;19.226;2024-03-07T00:15:40;34.25;;;12.32;;
58017;SDS011;43810;50.860;19.226;2024-03-07T00:18:07;39.40;;;12.82;;
58017;SDS011;43810;50.860;19.226;2024-03-07T00:20:32;28.25;;;13.52;;
58017;SDS011;43810;50.860;19.226;2024-03-07T00:22:58;24.10;;;10.48;;
58017;SDS011;43810;50.860;19.226;2024-03-07T00:25:24;37.60;;;12.88;;
58017;SDS011;43810;50.860;19.226;2024-03-07T00:27:50;28.20;;;12.90;;
58017;SDS011;43810;50.860;19.226;2024-03-07T00:30:18;27.38;;;11.80;;
58017;SDS011;43810;50.860;19.226;2024-03-07T00:32:44;29.80;;;13.80;;
58017;SDS011;43810;50.860;19.226;2024-03-07T00:35:10;27.02;;;10.65;;
58017;SDS011;43810;50.860;19.226;2024-03-07T00:37:36;32.83;;;12.63;;
58017;SDS011;43810;50.860;19.226;2024-03-07T00:40:02;29.52;;;12.38;;
58017;SDS011;43810;50.860;19.226;2024-03-07T00:42:28;24.67;;;12.02;;
58017;SDS011;43810;50.860;19.226;2024-03-07T00:44:54;28.48;;;11.50;;
58017;SDS011;43810;50.860;19.226;2024-03-07T00:47:20;31.33;;;14.40;;
58017;SDS011;43810;50.860;19.226;2024-03-07T00:49:46;30.42;;;12.98;;
58017;SDS011;43810;50.860;19.226;2024-03-07T00:52:12;28.27;;;12.68;;
58017;SDS011;43810;50.860;19.226;2024-03-07T00:54:38;33.60;;;12.80;;
58017;SDS011;43810;50.860;19.226;2024-03-07T00:57:04;27.30;;;12.52;;
58017;SDS011;43810;50.860;19.226;2024-03-07T00:59:30;26.30;;;13.15;;
58017;SDS011;43810;50.860;19.226;2024-03-07T01:01:56;31.10;;;14.85;;
58017;SDS011;43810;50.860;19.226;2024-03-07T01:04:22;26.33;;;12.68;;
58017;SDS011;43810;50.860;19.226;2024-03-07T01:06:48;31.00;;;13.25;;
58017;SDS011;43810;50.860;19.226;2024-03-07T01:09:14;27.75;;;12.35;;
58017;SDS011;43810;50.860;19.226;2024-03-07T01:11:41;30.20;;;12.75;;
58017;SDS011;43810;50.860;19.226;2024-03-07T01:14:08;31.58;;;13.35;;
58017;SDS011;43810;50.860;19.226;2024-03-07T01:16:34;31.08;;;12.27;;
58017;SDS011;43810;50.860;19.226;2024-03-07T01:19:00;33.47;;;11.52;;
58017;SDS011;43810;50.860;19.226;2024-03-07T01:21:26;28.92;;;11.10;;
58017;SDS011;43810;50.860;19.226;2024-03-07T01:23:52;33.72;;;12.70;;
58017;SDS011;43810;50.860;19.226;2024-03-07T01:26:17;24.10;;;10.93;;
58017;SDS011;43810;50.860;19.226;2024-03-07T01:28:43;25.83;;;11.57;;
58017;SDS011;43810;50.860;19.226;2024-03-07T01:31:09;34.22;;;12.90;;
58017;SDS011;43810;50.860;19.226;2024-03-07T01:33:35;22.30;;;12.35;;
58017;SDS011;43810;50.860;19.226;2024-03-07T01:36:01;25.20;;;11.68;;
58017;SDS011;43810;50.860;19.226;2024-03-07T01:38:27;21.42;;;10.18;;
58017;SDS011;43810;50.860;19.226;2024-03-07T01:40:53;31.20;;;11.52;;
58017;SDS011;43810;50.860;19.226;2024-03-07T01:43:20;25.27;;;13.15;;
58017;SDS011;43810;50.860;19.226;2024-03-07T01:45:47;23.83;;;11.20;;
58017;SDS011;43810;50.860;19.226;2024-03-07T01:48:14;23.60;;;11.85;;
58017;SDS011;43810;50.860;19.226;2024-03-07T01:50:46;25.13;;;11.60;;
58017;SDS011;43810;50.860;19.226;2024-03-07T01:53:11;27.33;;;10.27;;
58017;SDS011;43810;50.860;19.226;2024-03-07T01:55:39;23.02;;;10.88;;
58017;SDS011;43810;50.860;19.226;2024-03-07T01:58:06;18.23;;;10.30;;
58017;SDS011;43810;50.860;19.226;2024-03-07T02:00:34;24.08;;;12.52;;
58017;SDS011;43810;50.860;19.226;2024-03-07T02:02:59;21.00;;;8.98;;
58017;SDS011;43810;50.860;19.226;2024-03-07T02:05:25;28.77;;;11.75;;
58017;SDS011;43810;50.860;19.226;2024-03-07T02:07:51;19.95;;;10.55;;
58017;SDS011;43810;50.860;19.226;2024-03-07T02:10:17;24.70;;;13.43;;
58017;SDS011;43810;50.860;19.226;2024-03-07T02:12:43;21.27;;;10.93;;
58017;SDS011;43810;50.860;19.226;2024-03-07T02:15:10;23.05;;;11.40;;
58017;SDS011;43810;50.860;19.226;2024-03-07T02:17:36;20.50;;;11.73;;
58017;SDS011;43810;50.860;19.226;2024-03-07T02:20:03;22.77;;;8.77;;
58017;SDS011;43810;50.860;19.226;2024-03-07T02:22:34;27.00;;;12.60;;
58017;SDS011;43810;50.860;19.226;2024-03-07T02:25:00;23.38;;;11.20;;
58017;SDS011;43810;50.860;19.226;2024-03-07T02:27:25;31.17;;;13.68;;
58017;SDS011;43810;50.860;19.226;2024-03-07T02:29:51;31.13;;;12.45;;
58017;SDS011;43810;50.860;19.226;2024-03-07T02:32:17;27.45;;;11.90;;
58017;SDS011;43810;50.860;19.226;2024-03-07T02:34:43;25.55;;;13.02;;
58017;SDS011;43810;50.860;19.226;2024-03-07T02:37:09;28.45;;;12.48;;
58017;SDS011;43810;50.860;19.226;2024-03-07T02:39:37;23.42;;;11.23;;
58017;SDS011;43810;50.860;19.226;2024-03-07T02:42:03;33.53;;;14.00;;
58017;SDS011;43810;50.860;19.226;2024-03-07T02:44:29;18.55;;;10.45;;
58017;SDS011;43810;50.860;19.226;2024-03-07T02:46:57;26.67;;;12.70;;
58017;SDS011;43810;50.860;19.226;2024-03-07T02:49:23;24.90;;;11.90;;
58017;SDS011;43810;50.860;19.226;2024-03-07T02:51:49;32.78;;;12.15;;
58017;SDS011;43810;50.860;19.226;2024-03-07T02:54:15;27.23;;;12.23;;
58017;SDS011;43810;50.860;19.226;2024-03-07T02:56:41;24.60;;;13.23;;
58017;SDS011;43810;50.860;19.226;2024-03-07T02:59:07;22.17;;;11.25;;
58017;SDS011;43810;50.860;19.226;2024-03-07T03:01:32;22.98;;;10.85;;
58017;SDS011;43810;50.860;19.226;2024-03-07T03:03:59;22.55;;;12.57;;
58017;SDS011;43810;50.860;19.226;2024-03-07T03:06:24;25.48;;;13.80;;
58017;SDS011;43810;50.860;19.226;2024-03-07T03:08:50;27.67;;;11.32;;
58017;SDS011;43810;50.860;19.226;2024-03-07T03:11:16;28.17;;;13.55;;
58017;SDS011;43810;50.860;19.226;2024-03-07T03:13:42;24.17;;;11.73;;
58017;SDS011;43810;50.860;19.226;2024-03-07T03:16:08;27.65;;;12.40;;
58017;SDS011;43810;50.860;19.226;2024-03-07T03:18:35;26.33;;;11.98;;
58017;SDS011;43810;50.860;19.226;2024-03-07T03:21:01;27.00;;;13.35;;
58017;SDS011;43810;50.860;19.226;2024-03-07T03:23:28;24.65;;;13.02;;
58017;SDS011;43810;50.860;19.226;2024-03-07T03:25:54;22.17;;;12.18;;
58017;SDS011;43810;50.860;19.226;2024-03-07T03:28:20;26.25;;;13.85;;
58017;SDS011;43810;50.860;19.226;2024-03-07T03:30:47;25.08;;;11.95;;
58017;SDS011;43810;50.860;19.226;2024-03-07T03:33:13;16.83;;;8.88;;
58017;SDS011;43810;50.860;19.226;2024-03-07T03:35:40;33.92;;;13.50;;
58017;SDS011;43810;50.860;19.226;2024-03-07T03:38:07;15.82;;;9.25;;
58017;SDS011;43810;50.860;19.226;2024-03-07T03:40:33;24.30;;;11.85;;
58017;SDS011;43810;50.860;19.226;2024-03-07T03:42:59;27.35;;;11.80;;
58017;SDS011;43810;50.860;19.226;2024-03-07T03:45:28;21.23;;;11.90;;
58017;SDS011;43810;50.860;19.226;2024-03-07T03:47:54;25.13;;;10.60;;
58017;SDS011;43810;50.860;19.226;2024-03-07T03:50:20;19.92;;;10.55;;
58017;SDS011;43810;50.860;19.226;2024-03-07T03:52:48;20.58;;;9.90;;
58017;SDS011;43810;50.860;19.226;2024-03-07T03:55:14;17.90;;;9.55;;
58017;SDS011;43810;50.860;19.226;2024-03-07T03:57:41;16.73;;;11.07;;
58017;SDS011;43810;50.860;19.226;2024-03-07T04:00:09;19.92;;;11.52;;
58017;SDS011;43810;50.860;19.226;2024-03-07T04:05:09;27.65;;;10.52;;
58017;SDS011;43810;50.860;19.226;2024-03-07T04:07:37;25.88;;;10.40;;
58017;SDS011;43810;50.860;19.226;2024-03-07T04:10:03;24.92;;;12.02;;
58017;SDS011;43810;50.860;19.226;2024-03-07T04:12:33;20.45;;;11.57;;
58017;SDS011;43810;50.860;19.226;2024-03-07T04:15:00;18.88;;;11.07;;
58017;SDS011;43810;50.860;19.226;2024-03-07T04:17:26;24.10;;;11.25;;
58017;SDS011;43810;50.860;19.226;2024-03-07T04:19:52;22.60;;;10.93;;
58017;SDS011;43810;50.860;19.226;2024-03-07T04:22:18;14.55;;;9.85;;
58017;SDS011;43810;50.860;19.226;2024-03-07T04:24:45;19.70;;;10.45;;
58017;SDS011;43810;50.860;19.226;2024-03-07T04:27:11;15.23;;;8.88;;
58017;SDS011;43810;50.860;19.226;2024-03-07T04:29:37;24.58;;;10.45;;
58017;SDS011;43810;50.860;19.226;2024-03-07T04:32:03;21.73;;;11.30;;
58017;SDS011;43810;50.860;19.226;2024-03-07T04:34:30;19.42;;;9.57;;
58017;SDS011;43810;50.860;19.226;2024-03-07T04:36:57;21.05;;;8.70;;
58017;SDS011;43810;50.860;19.226;2024-03-07T04:39:29;24.05;;;10.15;;
58017;SDS011;43810;50.860;19.226;2024-03-07T04:42:02;23.20;;;11.60;;
58017;SDS011;43810;50.860;19.226;2024-03-07T04:44:28;17.40;;;9.60;;
58017;SDS011;43810;50.860;19.226;2024-03-07T04:46:55;25.63;;;10.48;;
58017;SDS011;43810;50.860;19.226;2024-03-07T04:49:24;27.67;;;11.90;;
58017;SDS011;43810;50.860;19.226;2024-03-07T04:51:52;25.65;;;10.82;;
58017;SDS011;43810;50.860;19.226;2024-03-07T04:54:19;18.15;;;10.00;;
58017;SDS011;43810;50.860;19.226;2024-03-07T04:56:46;20.52;;;10.15;;
58017;SDS011;43810;50.860;19.226;2024-03-07T04:59:12;27.98;;;11.48;;
58017;SDS011;43810;50.860;19.226;2024-03-07T05:01:39;13.63;;;7.95;;
58017;SDS011;43810;50.860;19.226;2024-03-07T05:04:05;21.98;;;10.20;;
58017;SDS011;43810;50.860;19.226;2024-03-07T05:06:31;19.48;;;10.05;;
58017;SDS011;43810;50.860;19.226;2024-03-07T05:09:00;18.55;;;9.38;;
58017;SDS011;43810;50.860;19.226;2024-03-07T05:11:28;18.85;;;11.23;;
58017;SDS011;43810;50.860;19.226;2024-03-07T05:13:55;25.80;;;11.35;;
58017;SDS011;43810;50.860;19.226;2024-03-07T05:16:21;20.52;;;10.35;;
58017;SDS011;43810;50.860;19.226;2024-03-07T05:18:46;20.17;;;10.48;;
58017;SDS011;43810;50.860;19.226;2024-03-07T05:21:12;26.02;;;10.65;;
58017;SDS011;43810;50.860;19.226;2024-03-07T05:23:56;17.75;;;8.88;;
58017;SDS011;43810;50.860;19.226;2024-03-07T05:26:24;21.27;;;9.65;;
58017;SDS011;43810;50.860;19.226;2024-03-07T05:28:50;20.05;;;9.85;;
58017;SDS011;43810;50.860;19.226;2024-03-07T05:31:17;25.60;;;10.55;;
58017;SDS011;43810;50.860;19.226;2024-03-07T05:33:45;24.48;;;12.10;;
58017;SDS011;43810;50.860;19.226;2024-03-07T05:36:11;19.40;;;10.27;;
58017;SDS011;43810;50.860;19.226;2024-03-07T05:38:43;14.13;;;8.15;;
58017;SDS011;43810;50.860;19.226;2024-03-07T05:41:09;29.52;;;10.40;;
58017;SDS011;43810;50.860;19.226;2024-03-07T05:43:36;31.30;;;10.75;;
58017;SDS011;43810;50.860;19.226;2024-03-07T05:46:02;22.88;;;10.02;;
58017;SDS011;43810;50.860;19.226;2024-03-07T05:48:29;19.30;;;10.23;;
58017;SDS011;43810;50.860;19.226;2024-03-07T05:50:55;31.52;;;12.02;;
58017;SDS011;43810;50.860;19.226;2024-03-07T05:53:21;27.13;;;10.23;;
58017;SDS011;43810;50.860;19.226;2024-03-07T05:55:47;20.23;;;11.23;;
58017;SDS011;43810;50.860;19.226;2024-03-07T05:58:13;20.15;;;10.45;;
58017;SDS011;43810;50.860;19.226;2024-03-07T06:00:39;25.70;;;11.38;;
58017;SDS011;43810;50.860;19.226;2024-03-07T06:03:05;23.77;;;10.15;;
58017;SDS011;43810;50.860;19.226;2024-03-07T06:05:31;25.55;;;9.07;;
58017;SDS011;43810;50.860;19.226;2024-03-07T06:07:56;16.25;;;9.57;;
58017;SDS011;43810;50.860;19.226;2024-03-07T06:10:22;17.60;;;9.05;;
58017;SDS011;43810;50.860;19.226;2024-03-07T06:12:54;23.35;;;9.80;;
58017;SDS011;43810;50.860;19.226;2024-03-07T06:15:20;19.30;;;9.27;;
58017;SDS011;43810;50.860;19.226;2024-03-07T06:17:46;18.52;;;11.38;;
58017;SDS011;43810;50.860;19.226;2024-03-07T06:20:12;20.08;;;10.50;;
58017;SDS011;43810;50.860;19.226;2024-03-07T06:22:48;35.40;;;11.88;;
58017;SDS011;43810;50.860;19.226;2024-03-07T06:25:16;25.60;;;11.15;;
58017;SDS011;43810;50.860;19.226;2024-03-07T06:27:44;22.73;;;11.23;;
58017;SDS011;43810;50.860;19.226;2024-03-07T06:30:17;23.67;;;10.43;;
58017;SDS011;43810;50.860;19.226;2024-03-07T06:32:43;23.55;;;10.93;;
58017;SDS011;43810;50.860;19.226;2024-03-07T06:35:10;28.92;;;11.30;;
58017;SDS011;43810;50.860;19.226;2024-03-07T06:37:35;20.70;;;10.68;;
58017;SDS011;43810;50.860;19.226;2024-03-07T06:40:01;26.63;;;12.88;;
58017;SDS011;43810;50.860;19.226;2024-03-07T06:42:34;29.70;;;13.52;;
58017;SDS011;43810;50.860;19.226;2024-03-07T06:45:02;46.63;;;23.90;;
58017;SDS011;43810;50.860;19.226;2024-03-07T06:47:29;24.20;;;13.45;;
58017;SDS011;43810;50.860;19.226;2024-03-07T06:49:55;19.92;;;12.50;;
58017;SDS011;43810;50.860;19.226;2024-03-07T06:52:21;23.77;;;12.27;;
58017;SDS011;43810;50.860;19.226;2024-03-07T06:54:47;22.77;;;11.95;;
58017;SDS011;43810;50.860;19.226;2024-03-07T06:57:12;35.83;;;14.30;;
58017;SDS011;43810;50.860;19.226;2024-03-07T06:59:38;25.42;;;12.30;;
58017;SDS011;43810;50.860;19.226;2024-03-07T07:02:04;28.05;;;12.23;;
58017;SDS011;43810;50.860;19.226;2024-03-07T07:04:30;20.00;;;10.80;;
58017;SDS011;43810;50.860;19.226;2024-03-07T07:07:07;30.98;;;12.75;;
58017;SDS011;43810;50.860;19.226;2024-03-07T07:09:36;34.53;;;13.25;;
58017;SDS011;43810;50.860;19.226;2024-03-07T07:12:01;20.85;;;11.35;;
58017;SDS011;43810;50.860;19.226;2024-03-07T07:14:30;22.13;;;11.18;;
58017;SDS011;43810;50.860;19.226;2024-03-07T07:16:56;30.38;;;13.40;;
58017;SDS011;43810;50.860;19.226;2024-03-07T07:19:22;23.25;;;12.65;;
58017;SDS011;43810;50.860;19.226;2024-03-07T07:21:47;32.28;;;13.68;;
58017;SDS011;43810;50.860;19.226;2024-03-07T07:24:25;40.30;;;13.23;;
58017;SDS011;43810;50.860;19.226;2024-03-07T07:26:50;27.98;;;12.73;;
58017;SDS011;43810;50.860;19.226;2024-03-07T07:29:16;24.17;;;12.63;;
58017;SDS011;43810;50.860;19.226;2024-03-07T07:31:42;22.45;;;11.55;;
58017;SDS011;43810;50.860;19.226;2024-03-07T07:34:08;29.88;;;13.70;;
58017;SDS011;43810;50.860;19.226;2024-03-07T07:36:34;29.52;;;13.25;;
58017;SDS011;43810;50.860;19.226;2024-03-07T07:39:00;29.73;;;14.82;;
58017;SDS011;43810;50.860;19.226;2024-03-07T07:41:26;34.25;;;13.20;;
58017;SDS011;43810;50.860;19.226;2024-03-07T07:43:51;23.85;;;11.15;;
58017;SDS011;43810;50.860;19.226;2024-03-07T07:46:17;35.80;;;12.50;;
58017;SDS011;43810;50.860;19.226;2024-03-07T07:48:43;29.70;;;11.85;;
58017;SDS011;43810;50.860;19.226;2024-03-07T07:51:09;26.35;;;12.25;;
58017;SDS011;43810;50.860;19.226;2024-03-07T07:53:35;23.38;;;11.25;;
58017;SDS011;43810;50.860;19.226;2024-03-07T07:56:00;30.13;;;13.98;;
58017;SDS011;43810;50.860;19.226;2024-03-07T07:58:26;27.63;;;10.52;;
58017;SDS011;43810;50.860;19.226;2024-03-07T08:00:52;31.02;;;12.73;;
58017;SDS011;43810;50.860;19.226;2024-03-07T08:03:18;27.40;;;13.68;;
58017;SDS011;43810;50.860;19.226;2024-03-07T08:05:44;26.42;;;10.27;;
58017;SDS011;43810;50.860;19.226;2024-03-07T08:08:12;24.75;;;11.38;;
58017;SDS011;43810;50.860;19.226;2024-03-07T08:10:41;32.28;;;13.68;;
58017;SDS011;43810;50.860;19.226;2024-03-07T08:13:07;36.58;;;15.80;;
58017;SDS011;43810;50.860;19.226;2024-03-07T08:15:36;36.80;;;14.20;;
58017;SDS011;43810;50.860;19.226;2024-03-07T08:18:02;27.20;;;9.63;;
58017;SDS011;43810;50.860;19.226;2024-03-07T08:20:33;35.60;;;12.85;;
58017;SDS011;43810;50.860;19.226;2024-03-07T08:23:00;25.27;;;12.43;;
58017;SDS011;43810;50.860;19.226;2024-03-07T08:25:26;23.00;;;12.05;;
58017;SDS011;43810;50.860;19.226;2024-03-07T08:27:54;39.08;;;13.90;;
58017;SDS011;43810;50.860;19.226;2024-03-07T08:30:21;31.13;;;13.55;;
58017;SDS011;43810;50.860;19.226;2024-03-07T08:32:48;27.55;;;12.82;;
58017;SDS011;43810;50.860;19.226;2024-03-07T08:35:17;31.60;;;13.82;;
58017;SDS011;43810;50.860;19.226;2024-03-07T08:37:51;32.33;;;14.02;;
58017;SDS011;43810;50.860;19.226;2024-03-07T08:40:23;32.83;;;14.23;;
58017;SDS011;43810;50.860;19.226;2024-03-07T08:42:51;34.60;;;13.70;;
58017;SDS011;43810;50.860;19.226;2024-03-07T08:45:19;30.13;;;13.35;;
58017;SDS011;43810;50.860;19.226;2024-03-07T08:47:46;31.27;;;13.07;;
58017;SDS011;43810;50.860;19.226;2024-03-07T08:50:12;29.27;;;13.35;;
58017;SDS011;43810;50.860;19.226;2024-03-07T08:52:39;24.52;;;13.70;;
58017;SDS011;43810;50.860;19.226;2024-03-07T08:55:06;22.83;;;12.55;;
58017;SDS011;43810;50.860;19.226;2024-03-07T08:57:35;38.17;;;13.07;;
58017;SDS011;43810;50.860;19.226;2024-03-07T09:00:07;32.78;;;11.50;;
58017;SDS011;43810;50.860;19.226;2024-03-07T09:02:35;26.23;;;12.90;;
58017;SDS011;43810;50.860;19.226;2024-03-07T09:05:01;21.80;;;11.98;;
58017;SDS011;43810;50.860;19.226;2024-03-07T09:07:28;27.95;;;13.95;;
58017;SDS011;43810;50.860;19.226;2024-03-07T09:09:54;35.17;;;15.32;;
58017;SDS011;43810;50.860;19.226;2024-03-07T09:12:21;26.88;;;12.38;;
58017;SDS011;43810;50.860;19.226;2024-03-07T09:14:46;32.38;;;12.77;;
58017;SDS011;43810;50.860;19.226;2024-03-07T09:17:12;28.23;;;12.38;;
58017;SDS011;43810;50.860;19.226;2024-03-07T09:19:38;28.88;;;13.93;;
58017;SDS011;43810;50.860;19.226;2024-03-07T09:22:04;28.70;;;12.55;;
58017;SDS011;43810;50.860;19.226;2024-03-07T09:24:33;33.38;;;13.57;;
58017;SDS011;43810;50.860;19.226;2024-03-07T09:27:00;30.60;;;11.75;;
58017;SDS011;43810;50.860;19.226;2024-03-07T09:29:26;34.40;;;11.98;;
58017;SDS011;43810;50.860;19.226;2024-03-07T09:31:53;27.42;;;13.88;;
58017;SDS011;43810;50.860;19.226;2024-03-07T09:34:20;26.15;;;12.43;;
58017;SDS011;43810;50.860;19.226;2024-03-07T09:36:47;30.50;;;14.02;;
58017;SDS011;43810;50.860;19.226;2024-03-07T09:39:14;29.80;;;13.10;;
58017;SDS011;43810;50.860;19.226;2024-03-07T09:41:40;32.85;;;13.25;;
58017;SDS011;43810;50.860;19.226;2024-03-07T09:44:09;35.38;;;12.60;;
58017;SDS011;43810;50.860;19.226;2024-03-07T09:46:48;36.80;;;13.75;;
58017;SDS011;43810;50.860;19.226;2024-03-07T09:49:20;28.08;;;12.88;;
58017;SDS011;43810;50.860;19.226;2024-03-07T09:51:47;25.00;;;12.60;;
58017;SDS011;43810;50.860;19.226;2024-03-07T09:54:20;23.70;;;12.70;;
58017;SDS011;43810;50.860;19.226;2024-03-07T09:56:50;26.95;;;12.85;;
58017;SDS011;43810;50.860;19.226;2024-03-07T09:59:19;31.27;;;12.63;;
58017;SDS011;43810;50.860;19.226;2024-03-07T10:01:48;26.20;;;12.65;;
58017;SDS011;43810;50.860;19.226;2024-03-07T10:04:16;37.65;;;13.77;;
58017;SDS011;43810;50.860;19.226;2024-03-07T10:06:50;28.42;;;12.10;;
58017;SDS011;43810;50.860;19.226;2024-03-07T10:09:18;30.63;;;13.52;;
58017;SDS011;43810;50.860;19.226;2024-03-07T10:11:54;27.30;;;13.77;;
58017;SDS011;43810;50.860;19.226;2024-03-07T10:14:21;32.90;;;14.23;;
58017;SDS011;43810;50.860;19.226;2024-03-07T10:16:46;25.88;;;11.18;;
58017;SDS011;43810;50.860;19.226;2024-03-07T10:19:12;28.10;;;13.63;;
58017;SDS011;43810;50.860;19.226;2024-03-07T10:21:40;24.50;;;11.68;;
58017;SDS011;43810;50.860;19.226;2024-03-07T10:26:39;25.73;;;13.02;;
58017;SDS011;43810;50.860;19.226;2024-03-07T10:29:05;23.65;;;11.55;;
58017;SDS011;43810;50.860;19.226;2024-03-07T10:31:33;20.15;;;11.10;;
58017;SDS011;43810;50.860;19.226;2024-03-07T10:34:00;23.00;;;10.63;;
58017;SDS011;43810;50.860;19.226;2024-03-07T10:36:28;30.00;;;11.88;;
58017;SDS011;43810;50.860;19.226;2024-03-07T10:39:00;28.15;;;10.35;;
58017;SDS011;43810;50.860;19.226;2024-03-07T10:41:42;22.83;;;12.60;;
58017;SDS011;43810;50.860;19.226;2024-03-07T10:44:18;26.42;;;12.48;;
58017;SDS011;43810;50.860;19.226;2024-03-07T10:46:54;23.75;;;12.23;;
58017;SDS011;43810;50.860;19.226;2024-03-07T10:49:21;21.70;;;12.13;;
58017;SDS011;43810;50.860;19.226;2024-03-07T10:51:54;27.23;;;11.25;;
58017;SDS011;43810;50.860;19.226;2024-03-07T10:54:48;19.30;;;9.38;;
58017;SDS011;43810;50.860;19.226;2024-03-07T11:00:24;23.33;;;11.10;;
58017;SDS011;43810;50.860;19.226;2024-03-07T11:03:01;32.30;;;14.02;;
58017;SDS011;43810;50.860;19.226;2024-03-07T11:05:32;30.42;;;12.65;;
58017;SDS011;43810;50.860;19.226;2024-03-07T11:07:59;24.33;;;11.98;;
58017;SDS011;43810;50.860;19.226;2024-03-07T11:10:33;20.13;;;10.95;;
58017;SDS011;43810;50.860;19.226;2024-03-07T11:13:09;23.38;;;10.75;;
58017;SDS011;43810;50.860;19.226;2024-03-07T11:15:38;28.45;;;11.73;;
58017;SDS011;43810;50.860;19.226;2024-03-07T11:18:07;24.05;;;10.60;;
58017;SDS011;43810;50.860;19.226;2024-03-07T11:20:38;23.08;;;10.85;;
58017;SDS011;43810;50.860;19.226;2024-03-07T11:26:01;17.13;;;8.50;;
58017;SDS011;43810;50.860;19.226;2024-03-07T11:28:35;21.90;;;10.50;;
58017;SDS011;43810;50.860;19.226;2024-03-07T11:31:15;23.50;;;11.93;;
58017;SDS011;43810;50.860;19.226;2024-03-07T11:36:47;20.67;;;10.20;;
58017;SDS011;43810;50.860;19.226;2024-03-07T11:44:47;22.10;;;9.27;;
58017;SDS011;43810;50.860;19.226;2024-03-07T11:47:16;24.67;;;11.40;;
58017;SDS011;43810;50.860;19.226;2024-03-07T11:49:43;23.92;;;10.00;;
58017;SDS011;43810;50.860;19.226;2024-03-07T11:52:13;24.35;;;10.73;;
58017;SDS011;43810;50.860;19.226;2024-03-07T11:54:42;22.38;;;9.98;;
58017;SDS011;43810;50.860;19.226;2024-03-07T11:57:17;28.50;;;11.05;;
58017;SDS011;43810;50.860;19.226;2024-03-07T11:59:58;19.42;;;11.05;;
58017;SDS011;43810;50.860;19.226;2024-03-07T12:02:26;26.45;;;10.43;;
58017;SDS011;43810;50.860;19.226;2024-03-07T12:04:53;21.85;;;10.52;;
58017;SDS011;43810;50.860;19.226;2024-03-07T12:07:18;26.13;;;9.48;;
58017;SDS011;43810;50.860;19.226;2024-03-07T12:09:48;20.45;;;10.70;;
58017;SDS011;43810;50.860;19.226;2024-03-07T12:12:19;22.25;;;9.57;;
58017;SDS011;43810;50.860;19.226;2024-03-07T12:14:47;23.23;;;10.45;;
58017;SDS011;43810;50.860;19.226;2024-03-07T12:17:13;20.38;;;9.70;;
58017;SDS011;43810;50.860;19.226;2024-03-07T12:19:41;19.70;;;9.68;;
58017;SDS011;43810;50.860;19.226;2024-03-07T12:22:07;22.17;;;10.18;;
58017;SDS011;43810;50.860;19.226;2024-03-07T12:24:38;22.08;;;10.70;;
58017;SDS011;43810;50.860;19.226;2024-03-07T12:27:06;18.25;;;10.15;;
58017;SDS011;43810;50.860;19.226;2024-03-07T12:29:40;16.77;;;9.27;;
58017;SDS011;43810;50.860;19.226;2024-03-07T12:32:13;20.73;;;10.23;;
58017;SDS011;43810;50.860;19.226;2024-03-07T12:34:39;19.55;;;8.80;;
58017;SDS011;43810;50.860;19.226;2024-03-07T12:37:10;19.88;;;9.52;;
58017;SDS011;43810;50.860;19.226;2024-03-07T12:39:36;21.65;;;8.43;;
58017;SDS011;43810;50.860;19.226;2024-03-07T12:42:17;22.13;;;10.18;;
58017;SDS011;43810;50.860;19.226;2024-03-07T12:44:44;16.67;;;8.25;;
58017;SDS011;43810;50.860;19.226;2024-03-07T12:47:13;20.30;;;9.02;;
58017;SDS011;43810;50.860;19.226;2024-03-07T12:49:43;15.57;;;7.85;;
58017;SDS011;43810;50.860;19.226;2024-03-07T12:52:09;19.40;;;9.20;;
58017;SDS011;43810;50.860;19.226;2024-03-07T12:54:36;18.80;;;8.95;;
58017;SDS011;43810;50.860;19.226;2024-03-07T12:57:08;15.77;;;8.20;;
58017;SDS011;43810;50.860;19.226;2024-03-07T12:59:34;15.43;;;8.32;;
58017;SDS011;43810;50.860;19.226;2024-03-07T13:02:03;21.33;;;9.23;;
58017;SDS011;43810;50.860;19.226;2024-03-07T13:04:32;19.13;;;9.38;;
58017;SDS011;43810;50.860;19.226;2024-03-07T13:06:58;23.20;;;8.35;;
58017;SDS011;43810;50.860;19.226;2024-03-07T13:09:25;25.58;;;10.93;;
58017;SDS011;43810;50.860;19.226;2024-03-07T13:11:56;21.90;;;8.50;;
58017;SDS011;43810;50.860;19.226;2024-03-07T13:14:23;24.35;;;9.25;;
58017;SDS011;43810;50.860;19.226;2024-03-07T13:16:48;20.23;;;9.55;;
58017;SDS011;43810;50.860;19.226;2024-03-07T13:19:15;20.30;;;8.75;;
58017;SDS011;43810;50.860;19.226;2024-03-07T13:21:46;20.85;;;8.85;;
58017;SDS011;43810;50.860;19.226;2024-03-07T13:24:14;19.58;;;8.73;;
58017;SDS011;43810;50.860;19.226;2024-03-07T13:26:40;17.95;;;8.02;;
58017;SDS011;43810;50.860;19.226;2024-03-07T13:29:08;17.08;;;8.10;;
58017;SDS011;43810;50.860;19.226;2024-03-07T13:31:35;19.10;;;8.30;;
58017;SDS011;43810;50.860;19.226;2024-03-07T13:34:01;19.55;;;9.63;;
58017;SDS011;43810;50.860;19.226;2024-03-07T13:36:28;17.55;;;8.65;;
58017;SDS011;43810;50.860;19.226;2024-03-07T13:38:54;18.55;;;9.02;;
58017;SDS011;43810;50.860;19.226;2024-03-07T13:41:21;18.10;;;9.02;;
58017;SDS011;43810;50.860;19.226;2024-03-07T13:43:59;18.90;;;9.15;;
58017;SDS011;43810;50.860;19.226;2024-03-07T13:46:25;14.75;;;6.95;;
58017;SDS011;43810;50.860;19.226;2024-03-07T13:48:51;20.50;;;8.45;;
58017;SDS011;43810;50.860;19.226;2024-03-07T13:51:17;19.85;;;9.05;;
58017;SDS011;43810;50.860;19.226;2024-03-07T13:53:43;16.67;;;8.70;;
58017;SDS011;43810;50.860;19.226;2024-03-07T13:56:39;15.98;;;8.38;;
58017;SDS011;43810;50.860;19.226;2024-03-07T14:02:00;15.63;;;7.82;;
58017;SDS011;43810;50.860;19.226;2024-03-07T14:04:58;24.70;;;11.15;;
58017;SDS011;43810;50.860;19.226;2024-03-07T14:14:03;16.25;;;7.20;;
58017;SDS011;43810;50.860;19.226;2024-03-07T14:22:30;22.52;;;8.95;;
58017;SDS011;43810;50.860;19.226;2024-03-07T14:30:56;17.02;;;9.02;;
58017;SDS011;43810;50.860;19.226;2024-03-07T14:33:26;15.63;;;7.90;;
58017;SDS011;43810;50.860;19.226;2024-03-07T14:41:12;18.35;;;9.15;;
58017;SDS011;43810;50.860;19.226;2024-03-07T14:43:40;15.70;;;6.95;;
58017;SDS011;43810;50.860;19.226;2024-03-07T14:46:09;15.77;;;7.85;;
58017;SDS011;43810;50.860;19.226;2024-03-07T14:48:38;15.32;;;8.18;;
58017;SDS011;43810;50.860;19.226;2024-03-07T14:51:06;13.48;;;7.82;;
58017;SDS011;43810;50.860;19.226;2024-03-07T14:53:34;16.88;;;8.18;;
58017;SDS011;43810;50.860;19.226;2024-03-07T14:56:00;21.17;;;8.82;;
58017;SDS011;43810;50.860;19.226;2024-03-07T14:58:26;21.88;;;8.95;;
58017;SDS011;43810;50.860;19.226;2024-03-07T15:00:51;14.65;;;8.32;;